createdAt,value
2018-09-10T00:02:06.665Z,97117.48
2018-09-10T00:04:34.048Z,97120.88
2018-09-10T00:07:01.328Z,97121.94
2018-09-10T00:09:28.578Z,97127.41
2018-09-10T00:11:55.815Z,97126.17
2018-09-10T00:14:23.074Z,97129.42
2018-09-10T00:16:50.250Z,97134.67
2018-09-10T00:19:17.483Z,97134.50
2018-09-10T00:21:44.756Z,97130.11
2018-09-10T00:24:12.052Z,97127.52
2018-09-10T00:26:39.303Z,97131.27
2018-09-10T00:29:06.506Z,97131.45
2018-09-10T00:31:33.651Z,97135.09
2018-09-10T00:34:00.894Z,97127.39
2018-09-10T00:36:28.085Z,97128.44
2018-09-10T00:38:55.316Z,97131.39
2018-09-10T00:41:22.555Z,97126.70
2018-09-10T00:43:49.784Z,97128.59
2018-09-10T00:46:17.012Z,97128.07
2018-09-10T00:48:44.253Z,97135.80
2018-09-10T00:51:11.486Z,97139.00
2018-09-10T00:53:38.797Z,97141.03
2018-09-10T00:56:06.070Z,97139.20
2018-09-10T00:58:33.281Z,97140.10
2018-09-10T01:01:00.495Z,97143.86
2018-09-10T01:03:27.713Z,97141.14
2018-09-10T01:05:55.085Z,97139.73
2018-09-10T01:08:22.342Z,97142.09
2018-09-10T01:10:49.588Z,97137.31
2018-09-10T01:13:16.795Z,97133.34
2018-09-10T01:15:44.161Z,97140.47
2018-09-10T01:18:11.414Z,97124.86
2018-09-10T01:20:38.623Z,97121.75
2018-09-10T01:23:05.855Z,97123.69
2018-09-10T01:25:33.092Z,97122.59
2018-09-10T01:28:00.279Z,97120.04
2018-09-10T01:30:27.499Z,97116.11
2018-09-10T01:32:54.753Z,97119.45
2018-09-10T01:35:21.970Z,97117.78
2018-09-10T01:37:49.154Z,97123.60
2018-09-10T01:40:16.428Z,97123.10
2018-09-10T01:42:43.664Z,97118.05
2018-09-10T01:45:10.900Z,97118.45
2018-09-10T01:47:38.131Z,97117.95
2018-09-10T01:50:05.498Z,97121.13
2018-09-10T01:52:32.737Z,97120.52
2018-09-10T01:55:00.033Z,97116.20
2018-09-10T01:57:27.203Z,97116.59
2018-09-10T01:59:54.462Z,97114.22
2018-09-10T02:02:21.665Z,97120.70
2018-09-10T02:04:48.909Z,97117.14
2018-09-10T02:07:16.093Z,97111.76
2018-09-10T02:09:43.267Z,97118.45
2018-09-10T02:12:15.984Z,97116.17
2018-09-10T02:14:43.161Z,97118.69
2018-09-10T02:17:10.423Z,97115.19
2018-09-10T02:19:37.658Z,97115.55
2018-09-10T02:22:05.067Z,97115.07
2018-09-10T02:24:32.333Z,97123.61
2018-09-10T02:27:00.497Z,97116.31
2018-09-10T02:29:27.730Z,97117.05
2018-09-10T02:31:54.944Z,97113.89
2018-09-10T02:34:22.194Z,97117.83
2018-09-10T02:36:49.541Z,97115.95
2018-09-10T02:39:16.849Z,97122.34
2018-09-10T02:41:44.296Z,97125.88
2018-09-10T02:44:12.680Z,97130.35
2018-09-10T02:46:39.976Z,97122.53
2018-09-10T02:49:07.291Z,97120.56
2018-09-10T02:51:34.678Z,97117.02
2018-09-10T02:54:01.926Z,97117.64
2018-09-10T02:56:29.165Z,97122.12
2018-09-10T02:58:56.367Z,97124.91
2018-09-10T03:01:23.601Z,97119.45
2018-09-10T03:03:50.805Z,97115.39
2018-09-10T03:06:18.099Z,97112.80
2018-09-10T03:08:45.295Z,97117.64
2018-09-10T03:11:12.763Z,97119.34
2018-09-10T03:13:40.043Z,97117.09
2018-09-10T03:16:07.286Z,97111.98
2018-09-10T03:18:34.485Z,97109.69
2018-09-10T03:21:01.758Z,97109.20
2018-09-10T03:23:28.957Z,97106.95
2018-09-10T03:25:56.117Z,97102.00
2018-09-10T03:28:23.390Z,97100.88
2018-09-10T03:30:50.551Z,97099.09
2018-09-10T03:33:17.889Z,97102.94
2018-09-10T03:35:45.151Z,97100.58
2018-09-10T03:38:12.363Z,97110.90
2018-09-10T03:40:39.562Z,97114.02
2018-09-10T03:43:06.754Z,97121.20
2018-09-10T03:45:33.974Z,97122.22
2018-09-10T03:48:01.220Z,97129.05
2018-09-10T03:50:28.480Z,97129.41
2018-09-10T03:52:55.676Z,97134.27
2018-09-10T03:58:02.547Z,97131.65
2018-09-10T04:00:29.795Z,97135.36
2018-09-10T04:02:57.092Z,97139.48
2018-09-10T04:05:24.290Z,97138.27
2018-09-10T04:07:51.535Z,97138.46
2018-09-10T04:10:18.767Z,97135.85
2018-09-10T04:12:45.979Z,97136.42
2018-09-10T04:15:13.215Z,97132.88
2018-09-10T04:17:40.501Z,97139.48
2018-09-10T04:20:09.022Z,97137.72
2018-09-10T04:22:36.704Z,97136.41
2018-09-10T04:25:04.122Z,97144.79
2018-09-10T04:27:31.323Z,97137.32
2018-09-10T04:29:58.582Z,97138.63
2018-09-10T04:32:25.844Z,97140.14
2018-09-10T04:34:53.612Z,97145.65
2018-09-10T04:37:20.916Z,97145.16
2018-09-10T04:39:48.184Z,97138.75
2018-09-10T04:42:15.444Z,97135.86
2018-09-10T04:44:42.634Z,97141.08
2018-09-10T04:47:09.851Z,97147.23
2018-09-10T04:49:37.126Z,97147.77
2018-09-10T04:52:04.402Z,97156.18
2018-09-10T04:54:31.656Z,97153.56
2018-09-10T04:56:58.820Z,97163.56
2018-09-10T04:59:26.220Z,97161.40
2018-09-10T05:01:53.443Z,97167.19
2018-09-10T05:04:20.699Z,97168.50
2018-09-10T05:06:47.858Z,97163.27
2018-09-10T05:09:15.143Z,97157.77
2018-09-10T05:11:42.352Z,97161.03
2018-09-10T05:14:09.517Z,97169.80
2018-09-10T05:16:36.747Z,97172.22
2018-09-10T05:19:03.969Z,97168.95
2018-09-10T05:21:31.269Z,97173.80
2018-09-10T05:23:58.477Z,97176.25
2018-09-10T05:26:25.624Z,97181.36
2018-09-10T05:28:52.927Z,97184.62
2018-09-10T05:31:20.220Z,97183.41
2018-09-10T05:33:47.519Z,97192.09
2018-09-10T05:36:15.106Z,97181.75
2018-09-10T05:38:42.388Z,97191.34
2018-09-10T05:41:09.612Z,97193.09
2018-09-10T05:43:36.880Z,97193.88
2018-09-10T05:46:04.127Z,97194.25
2018-09-10T05:48:31.424Z,97203.02
2018-09-10T05:50:58.636Z,97182.86
2018-09-10T05:53:25.841Z,97202.27
2018-09-10T05:55:53.172Z,97195.72
2018-09-10T05:58:20.379Z,97203.02
2018-09-10T06:00:47.642Z,97199.85
2018-09-10T06:03:14.846Z,97191.94
2018-09-10T06:05:42.186Z,97190.39
2018-09-10T06:08:09.451Z,97188.76
2018-09-10T06:10:36.795Z,97188.87
2018-09-10T06:13:04.029Z,97185.80
2018-09-10T06:15:31.199Z,97189.37
2018-09-10T06:17:58.436Z,97196.06
2018-09-10T06:20:25.669Z,97197.38
2018-09-10T06:22:52.909Z,97200.55
2018-09-10T06:25:20.178Z,97207.58
2018-09-10T06:27:47.358Z,97200.50
2018-09-10T06:30:14.667Z,97196.06
2018-09-10T06:32:41.889Z,97197.32
2018-09-10T06:35:09.125Z,97196.00
2018-09-10T06:37:36.376Z,97195.41
2018-09-10T06:40:03.631Z,97197.39
2018-09-10T06:42:30.817Z,97198.41
2018-09-10T06:44:58.078Z,97203.33
2018-09-10T06:47:25.334Z,97203.68
2018-09-10T06:49:52.568Z,97205.69
2018-09-10T06:52:19.831Z,97211.03
2018-09-10T06:54:46.997Z,97214.12
2018-09-10T06:57:14.245Z,97221.11
2018-09-10T06:59:41.462Z,97220.02
2018-09-10T07:02:08.702Z,97220.01
2018-09-10T07:04:35.958Z,97218.09
2018-09-10T07:07:03.171Z,97214.97
2018-09-10T07:09:30.393Z,97213.95
2018-09-10T07:11:57.636Z,97219.71
2018-09-10T07:14:24.925Z,97211.39
2018-09-10T07:16:52.141Z,97215.83
2018-09-10T07:19:19.411Z,97206.09
2018-09-10T07:21:46.599Z,97205.97
2018-09-10T07:24:13.913Z,97207.25
2018-09-10T07:26:41.083Z,97210.72
2018-09-10T07:29:08.335Z,97213.95
2018-09-10T07:31:35.584Z,97213.59
2018-09-10T07:34:02.773Z,97216.16
2018-09-10T07:36:29.956Z,97221.55
2018-09-10T07:38:57.192Z,97219.19
2018-09-10T07:41:24.487Z,97211.70
2018-09-10T07:43:51.786Z,97218.91
2018-09-10T07:46:19.038Z,97219.55
2018-09-10T07:48:46.256Z,97223.00
2018-09-10T07:51:13.413Z,97217.78
2018-09-10T07:53:40.634Z,97226.18
2018-09-10T07:56:07.837Z,97221.15
2018-09-10T07:58:35.398Z,97219.74
2018-09-10T08:01:02.612Z,97218.19
2018-09-10T08:03:29.873Z,97219.93
2018-09-10T08:05:57.085Z,97222.03
2018-09-10T08:08:24.251Z,97220.38
2018-09-10T08:10:51.539Z,97221.87
2018-09-10T08:13:18.721Z,97225.16
2018-09-10T08:15:45.958Z,97218.55
2018-09-10T08:18:13.207Z,97221.97
2018-09-10T08:20:40.484Z,97214.58
2018-09-10T08:23:07.681Z,97210.13
2018-09-10T08:25:35.012Z,97213.19
2018-09-10T08:28:02.315Z,97217.90
2018-09-10T08:30:29.616Z,97221.87
2018-09-10T08:32:56.791Z,97224.03
2018-09-10T08:35:24.026Z,97226.69
2018-09-10T08:37:51.314Z,97234.47
2018-09-10T08:40:18.572Z,97238.67
2018-09-10T08:42:45.808Z,97236.36
2018-09-10T08:45:13.071Z,97239.80
2018-09-10T08:47:40.298Z,97238.82
2018-09-10T08:50:08.110Z,97236.97
2018-09-10T08:52:35.311Z,97233.11
2018-09-10T08:55:02.861Z,97230.33
2018-09-10T08:57:29.903Z,97232.06
2018-09-10T08:59:57.108Z,97226.45
2018-09-10T09:02:24.363Z,97229.44
2018-09-10T09:04:51.573Z,97229.38
2018-09-10T09:07:18.729Z,97226.55
2018-09-10T09:09:45.968Z,97224.93
2018-09-10T09:12:13.260Z,97222.16
2018-09-10T09:14:40.456Z,97222.41
2018-09-10T09:17:07.658Z,97225.31
2018-09-10T09:19:34.850Z,97232.06
2018-09-10T09:22:02.141Z,97228.55
2018-09-10T09:24:29.402Z,97222.95
2018-09-10T09:26:56.674Z,97221.86
2018-09-10T09:29:23.930Z,97220.02
2018-09-10T09:31:51.082Z,97219.87
2018-09-10T09:34:18.359Z,97220.83
2018-09-10T09:36:51.500Z,97220.66
2018-09-10T09:39:24.261Z,97216.44
2018-09-10T09:41:57.041Z,97218.09
2018-09-10T09:44:29.837Z,97216.25
2018-09-10T09:46:57.078Z,97213.92
2018-09-10T09:49:24.335Z,97214.70
2018-09-10T09:51:51.660Z,97220.66
2018-09-10T09:54:18.865Z,97221.53
2018-09-10T09:56:46.131Z,97223.83
2018-09-10T09:59:13.353Z,97218.66
2018-09-10T10:01:46.999Z,97214.01
2018-09-10T10:04:14.327Z,97210.05
2018-09-10T10:06:41.443Z,97179.50
2018-09-10T10:09:10.921Z,97205.95
2018-09-10T10:11:38.778Z,97200.93
2018-09-10T10:14:06.735Z,97200.92
2018-09-10T10:16:33.968Z,97186.11
2018-09-10T10:19:01.334Z,97210.42
2018-09-10T10:21:28.519Z,97213.50
2018-09-10T10:23:55.806Z,97214.08
2018-09-10T10:26:22.988Z,97219.68
2018-09-10T10:28:50.371Z,97216.06
2018-09-10T10:31:17.648Z,97216.78
2018-09-10T10:33:44.926Z,97219.74
2018-09-10T10:36:12.485Z,97208.78
2018-09-10T10:38:39.766Z,97213.55
2018-09-10T10:41:06.941Z,97214.47
2018-09-10T10:43:34.176Z,97210.05
2018-09-10T10:46:01.385Z,97214.81
2018-09-10T10:48:28.625Z,97211.22
2018-09-10T10:50:55.910Z,97209.76
2018-09-10T10:53:23.194Z,97209.28
2018-09-10T10:55:50.414Z,97208.59
2018-09-10T10:58:17.653Z,97210.27
2018-09-10T11:00:44.849Z,97208.14
2018-09-10T11:03:12.046Z,97206.58
2018-09-10T11:05:39.348Z,97214.98
2018-09-10T11:08:06.521Z,97208.14
2018-09-10T11:10:33.801Z,97198.93
2018-09-10T11:13:01.052Z,97203.14
2018-09-10T11:15:28.265Z,97197.07
2018-09-10T11:17:55.503Z,97193.52
2018-09-10T11:20:22.752Z,97191.62
2018-09-10T11:22:49.959Z,97195.99
2018-09-10T11:25:17.228Z,97193.02
2018-09-10T11:27:44.560Z,97196.35
2018-09-10T11:30:11.765Z,97196.66
2018-09-10T11:32:39.263Z,97191.77
2018-09-10T11:35:06.560Z,97197.92
2018-09-10T11:37:33.856Z,97198.49
2018-09-10T11:40:01.169Z,97197.89
2018-09-10T11:42:28.496Z,97199.21
2018-09-10T11:44:55.703Z,97201.16
2018-09-10T11:47:22.961Z,97198.75
2018-09-10T11:49:50.267Z,97195.75
2018-09-10T11:52:17.613Z,97199.47
2018-09-10T11:54:44.869Z,97191.34
2018-09-10T11:57:12.181Z,97193.03
2018-09-10T11:59:39.379Z,97182.05
2018-09-10T12:02:07.363Z,97185.30
2018-09-10T12:04:34.570Z,97182.61
2018-09-10T12:07:01.842Z,97187.01
2018-09-10T12:09:29.090Z,97180.61
2018-09-10T12:11:56.307Z,97186.66
2018-09-10T12:14:23.632Z,97182.39
2018-09-10T12:16:50.875Z,97179.90
2018-09-10T12:19:18.135Z,97174.03
2018-09-10T12:21:45.371Z,97179.62
2018-09-10T12:24:12.594Z,97176.69
2018-09-10T12:26:39.895Z,97169.43
2018-09-10T12:29:07.147Z,97173.38
2018-09-10T12:31:34.415Z,97169.32
2018-09-10T12:34:01.710Z,97164.97
2018-09-10T12:36:28.979Z,97165.59
2018-09-10T12:38:56.182Z,97162.41
2018-09-10T12:41:23.406Z,97150.69
2018-09-10T12:43:50.593Z,97145.69
2018-09-10T12:46:17.851Z,97143.92
2018-09-10T12:48:45.057Z,97143.66
2018-09-10T12:51:12.302Z,97140.16
2018-09-10T12:53:39.480Z,97132.61
2018-09-10T12:56:06.761Z,97131.14
2018-09-10T12:58:34.018Z,97135.16
2018-09-10T13:01:01.206Z,97136.38
2018-09-10T13:03:28.415Z,97125.16
2018-09-10T13:05:55.630Z,97124.78
2018-09-10T13:08:22.865Z,97121.37
2018-09-10T13:10:50.247Z,97117.65
2018-09-10T13:13:17.283Z,97119.67
2018-09-10T13:15:44.450Z,97122.22
2018-09-10T13:18:11.655Z,97117.66
2018-09-10T13:20:38.857Z,97106.24
2018-09-10T13:23:06.119Z,97116.62
2018-09-10T13:25:33.296Z,97115.09
2018-09-10T13:28:00.562Z,97113.70
2018-09-10T13:30:27.760Z,97103.41
2018-09-10T13:32:54.967Z,97104.37
2018-09-10T13:35:22.187Z,97111.09
2018-09-10T13:37:49.454Z,97115.88
2018-09-10T13:40:17.092Z,97113.94
2018-09-10T13:42:44.312Z,97110.58
2018-09-10T13:45:11.763Z,97110.13
2018-09-10T13:47:38.944Z,97102.13
2018-09-10T13:50:06.194Z,97097.08
2018-09-10T13:52:33.444Z,97095.62
2018-09-10T13:55:00.637Z,97098.12
2018-09-10T13:57:27.859Z,97093.17
2018-09-10T13:59:55.147Z,97092.62
2018-09-10T14:02:22.409Z,97095.83
2018-09-10T14:04:49.595Z,97090.46
2018-09-10T14:07:17.045Z,97092.53
2018-09-10T14:09:44.283Z,97087.17
2018-09-10T14:12:11.524Z,97100.69
2018-09-10T14:14:38.739Z,97097.61
2018-09-10T14:17:05.981Z,97095.84
2018-09-10T14:19:33.206Z,97099.36
2018-09-10T14:22:00.467Z,97096.25
2018-09-10T14:24:27.714Z,97095.88
2018-09-10T14:26:54.996Z,97100.13
2018-09-10T14:29:22.197Z,97099.80
2018-09-10T14:31:49.673Z,97089.37
2018-09-10T14:36:39.944Z,97098.72
2018-09-10T14:39:07.724Z,97094.77
2018-09-10T14:41:35.194Z,97086.52
2018-09-10T14:44:02.418Z,97095.07
2018-09-10T14:46:29.610Z,97092.84
2018-09-10T14:48:56.929Z,97091.80
2018-09-10T14:51:24.164Z,97092.51
2018-09-10T14:53:51.896Z,97085.28
2018-09-10T14:56:19.230Z,97088.78
2018-09-10T14:58:46.440Z,97085.66
2018-09-10T15:01:13.657Z,97087.48
2018-09-10T15:03:40.939Z,97084.87
2018-09-10T15:06:08.135Z,97069.11
2018-09-10T15:08:35.384Z,97091.39
2018-09-10T15:11:02.573Z,97094.36
2018-09-10T15:13:29.806Z,97094.04
2018-09-10T15:15:56.997Z,97094.61
2018-09-10T15:18:24.263Z,97085.75
2018-09-10T15:20:51.436Z,97087.86
2018-09-10T15:23:18.678Z,97085.00
2018-09-10T15:25:45.850Z,97083.50
2018-09-10T15:28:13.063Z,97092.72
2018-09-10T15:30:40.271Z,97087.91
2018-09-10T15:33:07.506Z,97086.90
2018-09-10T15:35:34.675Z,97087.83
2018-09-10T15:38:02.254Z,97091.22
2018-09-10T15:40:29.519Z,97095.61
2018-09-10T15:42:56.787Z,97095.59
2018-09-10T15:45:24.110Z,97105.05
2018-09-10T15:47:51.334Z,97098.75
2018-09-10T15:50:18.523Z,97109.39
2018-09-10T15:52:45.809Z,97117.67
2018-09-10T15:55:12.994Z,97114.07
2018-09-10T15:57:40.236Z,97116.52
2018-09-10T16:00:07.551Z,97110.50
2018-09-10T16:02:34.711Z,97118.03
2018-09-10T16:05:01.999Z,97121.67
2018-09-10T16:07:29.266Z,97119.71
2018-09-10T16:09:56.544Z,97115.14
2018-09-10T16:12:23.817Z,97105.27
2018-09-10T16:14:51.068Z,97106.27
2018-09-10T16:17:18.346Z,97116.45
2018-09-10T16:19:45.579Z,97115.77
2018-09-10T16:22:12.826Z,97118.32
2018-09-10T16:24:40.036Z,97112.59
2018-09-10T16:27:07.430Z,97112.35
2018-09-10T16:29:34.652Z,97111.24
2018-09-10T16:32:01.910Z,97110.57
2018-09-10T16:34:29.106Z,97105.99
2018-09-10T16:36:56.296Z,97109.72
2018-09-10T16:39:23.510Z,97116.11
2018-09-10T16:41:50.775Z,97120.59
2018-09-10T16:44:17.930Z,97119.83
2018-09-10T16:46:45.148Z,97123.84
2018-09-10T16:49:12.499Z,97130.48
2018-09-10T16:51:39.705Z,97132.80
2018-09-10T16:54:06.907Z,97132.83
2018-09-10T16:56:34.061Z,97124.51
2018-09-10T16:59:01.334Z,97128.81
2018-09-10T17:01:28.532Z,97124.20
2018-09-10T17:03:55.726Z,97121.77
2018-09-10T17:06:22.989Z,97119.23
2018-09-10T17:08:50.233Z,97113.11
2018-09-10T17:11:17.446Z,97116.92
2018-09-10T17:13:44.687Z,97112.80
2018-09-10T17:16:11.878Z,97116.22
2018-09-10T17:23:25.123Z,97122.91
2018-09-10T17:25:53.943Z,97118.59
2018-09-10T17:28:21.394Z,97126.16
2018-09-10T17:30:48.703Z,97127.90
2018-09-10T17:33:16.067Z,97126.63
2018-09-10T17:35:43.223Z,97132.02
2018-09-10T17:38:10.428Z,97128.55
2018-09-10T17:40:37.630Z,97130.91
2018-09-10T17:43:04.864Z,97131.61
2018-09-10T17:45:32.205Z,97135.98
2018-09-10T17:47:59.484Z,97133.20
2018-09-10T17:50:26.666Z,97137.28
2018-09-10T17:52:53.897Z,97141.65
2018-09-10T17:55:21.099Z,97140.05
2018-09-10T17:57:48.262Z,97144.24
2018-09-10T18:00:15.523Z,97143.89
2018-09-10T18:02:42.684Z,97141.73
2018-09-10T18:05:09.911Z,97139.59
2018-09-10T18:07:37.057Z,97144.27
2018-09-10T18:10:04.286Z,97145.45
2018-09-10T18:12:31.457Z,97145.11
2018-09-10T18:14:58.707Z,97153.45
2018-09-10T18:17:25.911Z,97151.63
2018-09-10T18:19:53.146Z,97157.77
2018-09-10T18:22:20.372Z,97161.27
2018-09-10T18:24:47.566Z,97160.26
2018-09-10T18:27:14.817Z,97166.25
2018-09-10T18:29:42.033Z,97168.20
2018-09-10T18:32:09.197Z,97163.73
2018-09-10T18:34:36.429Z,97164.55
2018-09-10T18:37:03.613Z,97162.02
2018-09-10T18:39:30.826Z,97162.53
2018-09-10T18:41:57.983Z,97155.30
2018-09-10T18:44:25.231Z,97163.95
2018-09-10T18:46:52.429Z,97162.53
2018-09-10T18:49:19.682Z,97165.16
2018-09-10T18:51:46.925Z,97174.58
2018-09-10T18:54:14.157Z,97182.88
2018-09-10T18:56:41.395Z,97187.64
2018-09-10T18:59:08.618Z,97191.70
2018-09-10T19:01:35.888Z,97185.53
2018-09-10T19:04:03.120Z,97192.12
2018-09-10T19:06:30.352Z,97197.81
2018-09-10T19:08:57.568Z,97199.09
2018-09-10T19:11:24.817Z,97199.88
2018-09-10T19:13:52.055Z,97199.50
2018-09-10T19:16:19.368Z,97204.94
2018-09-10T19:18:46.526Z,97197.05
2018-09-10T19:21:13.730Z,97200.35
2018-09-10T19:23:40.896Z,97201.67
2018-09-10T19:26:08.083Z,97204.45
2018-09-10T19:28:35.289Z,97207.16
2018-09-10T19:31:02.710Z,97202.25
2018-09-10T19:33:30.221Z,97205.51
2018-09-10T19:35:59.194Z,97206.28
2018-09-10T19:38:26.487Z,97206.02
2018-09-10T19:40:53.828Z,97209.05
2018-09-10T19:43:21.039Z,97208.59
2018-09-10T19:45:48.215Z,97213.47
2018-09-10T19:48:15.426Z,97211.75
2018-09-10T19:50:42.792Z,97207.09
2018-09-10T19:53:10.145Z,97203.03
2018-09-10T19:55:37.451Z,97202.91
2018-09-10T19:58:04.704Z,97209.47
2018-09-10T20:00:32.065Z,97213.78
2018-09-10T20:02:59.284Z,97214.73
2018-09-10T20:05:26.529Z,97218.78
2018-09-10T20:07:53.933Z,97217.52
2018-09-10T20:10:21.147Z,97224.45
2018-09-10T20:12:48.354Z,97229.69
2018-09-10T20:15:15.571Z,97237.90
2018-09-10T20:17:42.689Z,97238.54
2018-09-10T20:20:09.944Z,97240.98
2018-09-10T20:22:37.180Z,97235.44
2018-09-10T20:25:04.451Z,97241.41
2018-09-10T20:27:31.898Z,97247.19
2018-09-10T20:29:59.158Z,97255.05
2018-09-10T20:32:26.400Z,97263.77
2018-09-10T20:34:53.634Z,97261.46
2018-09-10T20:37:20.896Z,97264.19
2018-09-10T20:39:48.162Z,97271.57
2018-09-10T20:42:15.496Z,97271.31
2018-09-10T20:44:42.726Z,97274.22
2018-09-10T20:47:09.992Z,97272.55
2018-09-10T20:49:37.209Z,97272.84
2018-09-10T20:52:04.545Z,97272.84
2018-09-10T20:54:31.691Z,97277.07
2018-09-10T20:56:58.917Z,97279.14
2018-09-10T20:59:26.179Z,97274.79
2018-09-10T21:01:53.439Z,97278.95
2018-09-10T21:04:20.677Z,97287.94
2018-09-10T21:06:47.905Z,97281.23
2018-09-10T21:09:15.179Z,97274.78
2018-09-10T21:11:42.447Z,97286.34
2018-09-10T21:14:09.744Z,97287.35
2018-09-10T21:16:36.982Z,97285.27
2018-09-10T21:19:04.359Z,97288.89
2018-09-10T21:21:31.533Z,97283.31
2018-09-10T21:23:58.763Z,97285.81
2018-09-10T21:26:26.030Z,97285.47
2018-09-10T21:28:53.273Z,97288.05
2018-09-10T21:31:20.570Z,97284.28
2018-09-10T21:33:48.041Z,97283.53
2018-09-10T21:36:15.228Z,97284.66
2018-09-10T21:38:42.491Z,97290.50
2018-09-10T21:41:09.715Z,97284.84
2018-09-10T21:43:37.008Z,97293.13
2018-09-10T21:46:04.309Z,97290.14
2018-09-10T21:48:31.588Z,97295.59
2018-09-10T21:50:58.815Z,97294.61
2018-09-10T21:53:26.092Z,97293.57
2018-09-10T21:55:53.231Z,97293.28
2018-09-10T21:58:20.496Z,97292.09
2018-09-10T22:00:57.710Z,97293.91
2018-09-10T22:03:25.368Z,97296.63
2018-09-10T22:05:53.095Z,97295.30
2018-09-10T22:08:20.402Z,97298.23
2018-09-10T22:10:47.909Z,97298.80
2018-09-10T22:13:15.231Z,97299.48
2018-09-10T22:15:42.703Z,97299.42
2018-09-10T22:18:10.669Z,97297.22
2018-09-10T22:20:37.887Z,97298.27
2018-09-10T22:23:05.195Z,97295.40
2018-09-10T22:25:32.455Z,97299.36
2018-09-10T22:27:59.679Z,97294.52
2018-09-10T22:30:26.887Z,97296.09
2018-09-10T22:32:54.162Z,97291.84
2018-09-10T22:35:21.377Z,97290.64
2018-09-10T22:37:48.581Z,97287.56
2018-09-10T22:40:15.820Z,97286.45
2018-09-10T22:42:43.031Z,97284.13
2018-09-10T22:45:10.284Z,97283.56
2018-09-10T22:47:37.543Z,97285.64
2018-09-10T22:50:04.862Z,97285.39
2018-09-10T22:52:32.162Z,97290.69
2018-09-10T22:54:59.343Z,97282.58
2018-09-10T22:57:26.629Z,97284.83
2018-09-10T22:59:53.868Z,97283.91
2018-09-10T23:02:21.094Z,97272.07
2018-09-10T23:04:48.291Z,97276.58
2018-09-10T23:07:15.580Z,97278.97
2018-09-10T23:09:42.843Z,97281.27
2018-09-10T23:12:10.049Z,97276.97
2018-09-10T23:14:37.319Z,97280.02
2018-09-10T23:17:04.767Z,97278.13
2018-09-10T23:19:31.996Z,97273.71
2018-09-10T23:21:59.214Z,97281.05
2018-09-10T23:24:26.515Z,97283.80
2018-09-10T23:26:53.726Z,97280.19
2018-09-10T23:29:20.973Z,97274.26
2018-09-10T23:31:48.232Z,97288.50
2018-09-10T23:34:15.443Z,97288.00
2018-09-10T23:36:42.667Z,97295.22
2018-09-10T23:39:09.928Z,97295.61
2018-09-10T23:41:37.260Z,97291.14
2018-09-10T23:44:04.752Z,97299.06
2018-09-10T23:46:32.040Z,97296.69
2018-09-10T23:48:59.215Z,97297.28
2018-09-10T23:51:26.422Z,97294.96
2018-09-10T23:53:53.675Z,97297.32
2018-09-10T23:56:20.869Z,97303.41
2018-09-10T23:58:48.081Z,97302.48
